sensor_id;sensor_type;location;lat;lon;timestamp;P1;durP1;ratioP1;P2;durP2;ratioP2
49458;SDS011;35354;51.296;16.924;2023-12-14T00:01:28;89.10;;;47.15;;
49458;SDS011;35354;51.296;16.924;2023-12-14T00:03:54;76.22;;;40.85;;
49458;SDS011;35354;51.296;16.924;2023-12-14T00:06:19;80.15;;;41.88;;
49458;SDS011;35354;51.296;16.924;2023-12-14T00:08:45;81.78;;;41.45;;
49458;SDS011;35354;51.296;16.924;2023-12-14T00:11:11;85.60;;;45.13;;
49458;SDS011;35354;51.296;16.924;2023-12-14T00:13:39;79.80;;;43.00;;
49458;SDS011;35354;51.296;16.924;2023-12-14T00:16:07;70.80;;;40.28;;
49458;SDS011;35354;51.296;16.924;2023-12-14T00:18:33;76.10;;;39.35;;
49458;SDS011;35354;51.296;16.924;2023-12-14T00:20:58;71.90;;;38.65;;
49458;SDS011;35354;51.296;16.924;2023-12-14T00:23:24;78.50;;;41.38;;
49458;SDS011;35354;51.296;16.924;2023-12-14T00:25:49;77.80;;;41.08;;
49458;SDS011;35354;51.296;16.924;2023-12-14T00:28:15;82.28;;;41.65;;
49458;SDS011;35354;51.296;16.924;2023-12-14T00:30:41;65.03;;;36.35;;
49458;SDS011;35354;51.296;16.924;2023-12-14T00:33:07;68.03;;;36.22;;
49458;SDS011;35354;51.296;16.924;2023-12-14T00:35:33;73.85;;;38.35;;
49458;SDS011;35354;51.296;16.924;2023-12-14T00:37:58;68.60;;;36.88;;
49458;SDS011;35354;51.296;16.924;2023-12-14T00:40:23;65.95;;;38.72;;
49458;SDS011;35354;51.296;16.924;2023-12-14T00:42:50;72.55;;;38.90;;
49458;SDS011;35354;51.296;16.924;2023-12-14T00:45:15;72.13;;;39.58;;
49458;SDS011;35354;51.296;16.924;2023-12-14T00:47:40;83.72;;;44.30;;
49458;SDS011;35354;51.296;16.924;2023-12-14T00:50:06;69.75;;;38.67;;
49458;SDS011;35354;51.296;16.924;2023-12-14T00:52:32;75.85;;;40.15;;
49458;SDS011;35354;51.296;16.924;2023-12-14T00:54:57;78.30;;;43.80;;
49458;SDS011;35354;51.296;16.924;2023-12-14T00:57:23;83.78;;;40.28;;
49458;SDS011;35354;51.296;16.924;2023-12-14T00:59:48;78.65;;;39.85;;
49458;SDS011;35354;51.296;16.924;2023-12-14T01:02:13;78.55;;;40.38;;
49458;SDS011;35354;51.296;16.924;2023-12-14T01:04:39;81.05;;;40.40;;
49458;SDS011;35354;51.296;16.924;2023-12-14T01:07:04;74.47;;;39.85;;
49458;SDS011;35354;51.296;16.924;2023-12-14T01:09:29;72.43;;;39.05;;
49458;SDS011;35354;51.296;16.924;2023-12-14T01:11:55;74.47;;;39.60;;
49458;SDS011;35354;51.296;16.924;2023-12-14T01:14:20;75.30;;;38.53;;
49458;SDS011;35354;51.296;16.924;2023-12-14T01:16:46;75.93;;;39.80;;
49458;SDS011;35354;51.296;16.924;2023-12-14T01:19:11;73.35;;;40.28;;
49458;SDS011;35354;51.296;16.924;2023-12-14T01:21:36;71.15;;;37.38;;
49458;SDS011;35354;51.296;16.924;2023-12-14T01:24:02;77.25;;;40.10;;
49458;SDS011;35354;51.296;16.924;2023-12-14T01:26:27;78.07;;;39.53;;
49458;SDS011;35354;51.296;16.924;2023-12-14T01:28:53;77.93;;;38.90;;
49458;SDS011;35354;51.296;16.924;2023-12-14T01:31:18;79.28;;;41.97;;
49458;SDS011;35354;51.296;16.924;2023-12-14T01:33:44;72.40;;;38.65;;
49458;SDS011;35354;51.296;16.924;2023-12-14T01:36:11;76.50;;;40.40;;
49458;SDS011;35354;51.296;16.924;2023-12-14T01:38:36;77.00;;;40.00;;
49458;SDS011;35354;51.296;16.924;2023-12-14T01:41:02;73.15;;;37.53;;
49458;SDS011;35354;51.296;16.924;2023-12-14T01:43:27;73.75;;;37.88;;
49458;SDS011;35354;51.296;16.924;2023-12-14T01:45:53;75.07;;;38.03;;
49458;SDS011;35354;51.296;16.924;2023-12-14T01:48:18;78.00;;;39.60;;
49458;SDS011;35354;51.296;16.924;2023-12-14T01:50:43;86.65;;;42.65;;
49458;SDS011;35354;51.296;16.924;2023-12-14T01:53:09;86.72;;;40.40;;
49458;SDS011;35354;51.296;16.924;2023-12-14T01:55:34;84.90;;;41.33;;
49458;SDS011;35354;51.296;16.924;2023-12-14T01:57:59;81.43;;;39.55;;
49458;SDS011;35354;51.296;16.924;2023-12-14T02:00:31;81.63;;;42.47;;
49458;SDS011;35354;51.296;16.924;2023-12-14T02:03:19;86.53;;;40.58;;
49458;SDS011;35354;51.296;16.924;2023-12-14T02:05:44;77.97;;;41.05;;
49458;SDS011;35354;51.296;16.924;2023-12-14T02:08:09;84.28;;;40.30;;
49458;SDS011;35354;51.296;16.924;2023-12-14T02:10:35;81.13;;;38.13;;
49458;SDS011;35354;51.296;16.924;2023-12-14T02:13:01;92.82;;;40.50;;
49458;SDS011;35354;51.296;16.924;2023-12-14T02:15:27;84.05;;;40.70;;
49458;SDS011;35354;51.296;16.924;2023-12-14T02:17:52;87.20;;;42.15;;
49458;SDS011;35354;51.296;16.924;2023-12-14T02:20:18;95.45;;;43.08;;
49458;SDS011;35354;51.296;16.924;2023-12-14T02:22:50;86.00;;;42.17;;
49458;SDS011;35354;51.296;16.924;2023-12-14T02:25:16;88.50;;;42.35;;
49458;SDS011;35354;51.296;16.924;2023-12-14T02:27:41;87.88;;;41.47;;
49458;SDS011;35354;51.296;16.924;2023-12-14T02:30:07;87.40;;;42.05;;
49458;SDS011;35354;51.296;16.924;2023-12-14T02:32:33;86.75;;;43.58;;
49458;SDS011;35354;51.296;16.924;2023-12-14T02:34:59;90.30;;;42.50;;
49458;SDS011;35354;51.296;16.924;2023-12-14T02:37:24;99.40;;;43.63;;
49458;SDS011;35354;51.296;16.924;2023-12-14T02:39:50;99.28;;;46.45;;
49458;SDS011;35354;51.296;16.924;2023-12-14T02:42:16;99.75;;;47.83;;
49458;SDS011;35354;51.296;16.924;2023-12-14T02:44:41;93.55;;;43.53;;
49458;SDS011;35354;51.296;16.924;2023-12-14T02:47:08;94.03;;;47.50;;
49458;SDS011;35354;51.296;16.924;2023-12-14T02:49:33;96.60;;;46.60;;
49458;SDS011;35354;51.296;16.924;2023-12-14T02:51:58;94.95;;;46.75;;
49458;SDS011;35354;51.296;16.924;2023-12-14T02:54:24;109.95;;;52.10;;
49458;SDS011;35354;51.296;16.924;2023-12-14T02:56:50;99.93;;;46.78;;
49458;SDS011;35354;51.296;16.924;2023-12-14T02:59:15;92.13;;;45.80;;
49458;SDS011;35354;51.296;16.924;2023-12-14T03:01:40;92.85;;;46.60;;
49458;SDS011;35354;51.296;16.924;2023-12-14T03:04:06;87.50;;;43.88;;
49458;SDS011;35354;51.296;16.924;2023-12-14T03:06:32;89.63;;;42.22;;
49458;SDS011;35354;51.296;16.924;2023-12-14T03:08:57;94.95;;;46.13;;
49458;SDS011;35354;51.296;16.924;2023-12-14T03:11:23;95.32;;;43.13;;
49458;SDS011;35354;51.296;16.924;2023-12-14T03:13:49;96.03;;;45.40;;
49458;SDS011;35354;51.296;16.924;2023-12-14T03:16:15;92.07;;;43.35;;
49458;SDS011;35354;51.296;16.924;2023-12-14T03:18:41;92.00;;;44.40;;
49458;SDS011;35354;51.296;16.924;2023-12-14T03:21:09;88.68;;;42.00;;
49458;SDS011;35354;51.296;16.924;2023-12-14T03:23:35;87.57;;;38.63;;
49458;SDS011;35354;51.296;16.924;2023-12-14T03:26:01;87.35;;;40.72;;
49458;SDS011;35354;51.296;16.924;2023-12-14T03:28:27;85.72;;;39.70;;
49458;SDS011;35354;51.296;16.924;2023-12-14T03:30:53;80.90;;;37.88;;
49458;SDS011;35354;51.296;16.924;2023-12-14T03:33:18;86.25;;;41.22;;
49458;SDS011;35354;51.296;16.924;2023-12-14T03:35:43;91.47;;;41.45;;
49458;SDS011;35354;51.296;16.924;2023-12-14T03:38:09;89.53;;;41.70;;
49458;SDS011;35354;51.296;16.924;2023-12-14T03:40:34;92.90;;;41.72;;
49458;SDS011;35354;51.296;16.924;2023-12-14T03:43:00;83.82;;;39.80;;
49458;SDS011;35354;51.296;16.924;2023-12-14T03:45:26;81.07;;;39.15;;
49458;SDS011;35354;51.296;16.924;2023-12-14T03:47:52;86.22;;;40.67;;
49458;SDS011;35354;51.296;16.924;2023-12-14T03:50:17;91.47;;;42.50;;
49458;SDS011;35354;51.296;16.924;2023-12-14T03:52:42;93.43;;;42.47;;
49458;SDS011;35354;51.296;16.924;2023-12-14T03:55:08;92.13;;;42.17;;
49458;SDS011;35354;51.296;16.924;2023-12-14T03:57:34;89.13;;;40.00;;
49458;SDS011;35354;51.296;16.924;2023-12-14T03:59:59;90.43;;;40.40;;
49458;SDS011;35354;51.296;16.924;2023-12-14T04:02:24;88.05;;;39.90;;
49458;SDS011;35354;51.296;16.924;2023-12-14T04:04:51;93.88;;;40.30;;
49458;SDS011;35354;51.296;16.924;2023-12-14T04:07:17;85.68;;;40.63;;
49458;SDS011;35354;51.296;16.924;2023-12-14T04:09:43;95.13;;;42.97;;
49458;SDS011;35354;51.296;16.924;2023-12-14T04:12:09;89.53;;;41.33;;
49458;SDS011;35354;51.296;16.924;2023-12-14T04:14:34;87.63;;;40.83;;
49458;SDS011;35354;51.296;16.924;2023-12-14T04:17:00;80.85;;;38.47;;
49458;SDS011;35354;51.296;16.924;2023-12-14T04:19:25;85.68;;;37.55;;
49458;SDS011;35354;51.296;16.924;2023-12-14T04:21:51;82.03;;;38.25;;
49458;SDS011;35354;51.296;16.924;2023-12-14T04:24:16;78.00;;;38.95;;
49458;SDS011;35354;51.296;16.924;2023-12-14T04:26:42;82.82;;;37.60;;
49458;SDS011;35354;51.296;16.924;2023-12-14T04:29:07;75.75;;;37.55;;
49458;SDS011;35354;51.296;16.924;2023-12-14T04:31:33;75.45;;;36.38;;
49458;SDS011;35354;51.296;16.924;2023-12-14T04:33:59;79.50;;;37.33;;
49458;SDS011;35354;51.296;16.924;2023-12-14T04:36:25;71.95;;;35.63;;
49458;SDS011;35354;51.296;16.924;2023-12-14T04:38:50;73.10;;;37.40;;
49458;SDS011;35354;51.296;16.924;2023-12-14T04:41:15;72.75;;;35.38;;
49458;SDS011;35354;51.296;16.924;2023-12-14T04:43:41;74.35;;;37.97;;
49458;SDS011;35354;51.296;16.924;2023-12-14T04:46:06;80.75;;;36.65;;
49458;SDS011;35354;51.296;16.924;2023-12-14T04:48:31;74.28;;;35.80;;
49458;SDS011;35354;51.296;16.924;2023-12-14T04:50:57;75.75;;;35.03;;
49458;SDS011;35354;51.296;16.924;2023-12-14T04:53:22;76.10;;;34.90;;
49458;SDS011;35354;51.296;16.924;2023-12-14T04:55:49;82.18;;;40.60;;
49458;SDS011;35354;51.296;16.924;2023-12-14T04:58:14;75.47;;;35.05;;
49458;SDS011;35354;51.296;16.924;2023-12-14T05:00:39;78.47;;;37.60;;
49458;SDS011;35354;51.296;16.924;2023-12-14T05:03:05;81.93;;;36.78;;
49458;SDS011;35354;51.296;16.924;2023-12-14T05:05:30;70.03;;;34.08;;
49458;SDS011;35354;51.296;16.924;2023-12-14T05:07:56;66.82;;;34.38;;
49458;SDS011;35354;51.296;16.924;2023-12-14T05:10:21;76.13;;;35.63;;
49458;SDS011;35354;51.296;16.924;2023-12-14T05:12:47;72.75;;;34.78;;
49458;SDS011;35354;51.296;16.924;2023-12-14T05:15:12;66.65;;;33.55;;
49458;SDS011;35354;51.296;16.924;2023-12-14T05:17:38;73.20;;;36.35;;
49458;SDS011;35354;51.296;16.924;2023-12-14T05:20:04;64.97;;;31.85;;
49458;SDS011;35354;51.296;16.924;2023-12-14T05:22:34;67.65;;;34.13;;
49458;SDS011;35354;51.296;16.924;2023-12-14T05:25:00;62.22;;;30.55;;
49458;SDS011;35354;51.296;16.924;2023-12-14T05:27:26;62.47;;;30.80;;
49458;SDS011;35354;51.296;16.924;2023-12-14T05:29:51;59.55;;;29.83;;
49458;SDS011;35354;51.296;16.924;2023-12-14T05:32:16;58.42;;;30.55;;
49458;SDS011;35354;51.296;16.924;2023-12-14T05:34:42;56.03;;;30.08;;
49458;SDS011;35354;51.296;16.924;2023-12-14T05:37:07;61.08;;;30.70;;
49458;SDS011;35354;51.296;16.924;2023-12-14T05:39:32;58.47;;;29.55;;
49458;SDS011;35354;51.296;16.924;2023-12-14T05:41:58;58.13;;;30.98;;
49458;SDS011;35354;51.296;16.924;2023-12-14T05:44:24;58.72;;;30.33;;
49458;SDS011;35354;51.296;16.924;2023-12-14T05:46:49;59.35;;;30.05;;
49458;SDS011;35354;51.296;16.924;2023-12-14T05:49:15;63.45;;;32.90;;
49458;SDS011;35354;51.296;16.924;2023-12-14T05:51:40;62.80;;;30.95;;
49458;SDS011;35354;51.296;16.924;2023-12-14T05:54:06;78.53;;;39.45;;
49458;SDS011;35354;51.296;16.924;2023-12-14T05:56:31;67.80;;;33.85;;
49458;SDS011;35354;51.296;16.924;2023-12-14T05:58:57;73.63;;;35.92;;
49458;SDS011;35354;51.296;16.924;2023-12-14T06:01:23;66.25;;;35.05;;
49458;SDS011;35354;51.296;16.924;2023-12-14T06:03:50;72.53;;;34.55;;
49458;SDS011;35354;51.296;16.924;2023-12-14T06:06:15;71.22;;;34.05;;
49458;SDS011;35354;51.296;16.924;2023-12-14T06:08:41;73.82;;;36.60;;
49458;SDS011;35354;51.296;16.924;2023-12-14T06:11:07;92.70;;;40.67;;
49458;SDS011;35354;51.296;16.924;2023-12-14T06:13:33;83.15;;;39.00;;
49458;SDS011;35354;51.296;16.924;2023-12-14T06:15:59;79.80;;;38.60;;
49458;SDS011;35354;51.296;16.924;2023-12-14T06:18:26;83.85;;;38.08;;
49458;SDS011;35354;51.296;16.924;2023-12-14T06:20:52;86.53;;;40.22;;
49458;SDS011;35354;51.296;16.924;2023-12-14T06:23:18;89.90;;;40.97;;
49458;SDS011;35354;51.296;16.924;2023-12-14T06:25:43;81.65;;;38.85;;
49458;SDS011;35354;51.296;16.924;2023-12-14T06:28:15;86.20;;;38.97;;
49458;SDS011;35354;51.296;16.924;2023-12-14T06:30:42;82.80;;;36.88;;
49458;SDS011;35354;51.296;16.924;2023-12-14T06:33:08;87.20;;;41.90;;
49458;SDS011;35354;51.296;16.924;2023-12-14T06:35:34;81.03;;;39.83;;
49458;SDS011;35354;51.296;16.924;2023-12-14T06:38:05;86.60;;;40.28;;
49458;SDS011;35354;51.296;16.924;2023-12-14T06:40:31;85.43;;;39.88;;
49458;SDS011;35354;51.296;16.924;2023-12-14T06:42:56;91.22;;;42.10;;
49458;SDS011;35354;51.296;16.924;2023-12-14T06:45:23;85.80;;;39.95;;
49458;SDS011;35354;51.296;16.924;2023-12-14T06:47:48;80.28;;;38.65;;
49458;SDS011;35354;51.296;16.924;2023-12-14T06:50:14;79.00;;;38.65;;
49458;SDS011;35354;51.296;16.924;2023-12-14T06:52:40;79.80;;;39.53;;
49458;SDS011;35354;51.296;16.924;2023-12-14T06:55:06;85.60;;;40.30;;
49458;SDS011;35354;51.296;16.924;2023-12-14T06:57:35;77.22;;;38.33;;
49458;SDS011;35354;51.296;16.924;2023-12-14T07:00:05;71.25;;;36.10;;
49458;SDS011;35354;51.296;16.924;2023-12-14T07:02:31;76.47;;;38.25;;
49458;SDS011;35354;51.296;16.924;2023-12-14T07:04:57;66.18;;;36.22;;
49458;SDS011;35354;51.296;16.924;2023-12-14T07:07:23;63.58;;;35.47;;
49458;SDS011;35354;51.296;16.924;2023-12-14T07:09:48;65.40;;;33.70;;
49458;SDS011;35354;51.296;16.924;2023-12-14T07:12:13;62.65;;;32.67;;
49458;SDS011;35354;51.296;16.924;2023-12-14T07:14:39;57.67;;;31.80;;
49458;SDS011;35354;51.296;16.924;2023-12-14T07:17:05;62.63;;;31.73;;
49458;SDS011;35354;51.296;16.924;2023-12-14T07:19:30;56.45;;;29.27;;
49458;SDS011;35354;51.296;16.924;2023-12-14T07:21:56;55.78;;;30.27;;
49458;SDS011;35354;51.296;16.924;2023-12-14T07:24:22;52.67;;;27.52;;
49458;SDS011;35354;51.296;16.924;2023-12-14T07:26:47;48.38;;;29.00;;
49458;SDS011;35354;51.296;16.924;2023-12-14T07:29:12;53.20;;;30.05;;
49458;SDS011;35354;51.296;16.924;2023-12-14T07:31:38;57.58;;;32.33;;
49458;SDS011;35354;51.296;16.924;2023-12-14T07:34:03;53.92;;;30.52;;
49458;SDS011;35354;51.296;16.924;2023-12-14T07:36:32;50.28;;;30.35;;
49458;SDS011;35354;51.296;16.924;2023-12-14T07:38:57;57.28;;;31.17;;
49458;SDS011;35354;51.296;16.924;2023-12-14T07:41:25;52.38;;;28.85;;
49458;SDS011;35354;51.296;16.924;2023-12-14T07:43:54;55.85;;;30.52;;
49458;SDS011;35354;51.296;16.924;2023-12-14T07:46:20;64.28;;;32.17;;
49458;SDS011;35354;51.296;16.924;2023-12-14T07:48:47;61.10;;;31.60;;
49458;SDS011;35354;51.296;16.924;2023-12-14T07:51:12;66.60;;;34.63;;
49458;SDS011;35354;51.296;16.924;2023-12-14T07:53:38;64.00;;;34.22;;
49458;SDS011;35354;51.296;16.924;2023-12-14T07:56:04;54.08;;;30.33;;
49458;SDS011;35354;51.296;16.924;2023-12-14T07:58:29;58.17;;;33.20;;
49458;SDS011;35354;51.296;16.924;2023-12-14T08:00:55;60.80;;;37.13;;
49458;SDS011;35354;51.296;16.924;2023-12-14T08:03:20;60.13;;;35.72;;
49458;SDS011;35354;51.296;16.924;2023-12-14T08:05:45;54.15;;;30.45;;
49458;SDS011;35354;51.296;16.924;2023-12-14T08:08:12;53.53;;;29.52;;
49458;SDS011;35354;51.296;16.924;2023-12-14T08:10:37;52.70;;;29.17;;
49458;SDS011;35354;51.296;16.924;2023-12-14T08:13:02;48.35;;;26.75;;
49458;SDS011;35354;51.296;16.924;2023-12-14T08:15:28;51.53;;;27.25;;
49458;SDS011;35354;51.296;16.924;2023-12-14T08:17:53;46.53;;;26.13;;
49458;SDS011;35354;51.296;16.924;2023-12-14T08:20:19;52.10;;;27.17;;
49458;SDS011;35354;51.296;16.924;2023-12-14T08:22:47;49.85;;;27.65;;
49458;SDS011;35354;51.296;16.924;2023-12-14T08:25:12;44.95;;;27.25;;
49458;SDS011;35354;51.296;16.924;2023-12-14T08:27:42;45.55;;;26.80;;
49458;SDS011;35354;51.296;16.924;2023-12-14T08:30:09;53.75;;;29.20;;
49458;SDS011;35354;51.296;16.924;2023-12-14T08:32:35;50.15;;;29.42;;
49458;SDS011;35354;51.296;16.924;2023-12-14T08:35:01;47.13;;;28.95;;
49458;SDS011;35354;51.296;16.924;2023-12-14T08:37:26;56.10;;;30.83;;
49458;SDS011;35354;51.296;16.924;2023-12-14T08:39:51;53.47;;;31.33;;
49458;SDS011;35354;51.296;16.924;2023-12-14T08:42:17;56.55;;;32.38;;
49458;SDS011;35354;51.296;16.924;2023-12-14T08:44:42;54.95;;;30.80;;
49458;SDS011;35354;51.296;16.924;2023-12-14T08:47:07;52.88;;;31.15;;
49458;SDS011;35354;51.296;16.924;2023-12-14T08:49:34;56.58;;;31.98;;
49458;SDS011;35354;51.296;16.924;2023-12-14T08:52:00;55.72;;;30.08;;
49458;SDS011;35354;51.296;16.924;2023-12-14T08:54:25;56.33;;;31.05;;
49458;SDS011;35354;51.296;16.924;2023-12-14T08:56:51;59.47;;;33.22;;
49458;SDS011;35354;51.296;16.924;2023-12-14T08:59:17;60.25;;;32.08;;
49458;SDS011;35354;51.296;16.924;2023-12-14T09:01:44;62.15;;;32.58;;
49458;SDS011;35354;51.296;16.924;2023-12-14T09:04:09;67.95;;;37.85;;
49458;SDS011;35354;51.296;16.924;2023-12-14T09:06:35;54.08;;;29.42;;
49458;SDS011;35354;51.296;16.924;2023-12-14T09:09:00;74.85;;;48.08;;
49458;SDS011;35354;51.296;16.924;2023-12-14T09:11:25;47.17;;;27.77;;
49458;SDS011;35354;51.296;16.924;2023-12-14T09:13:51;38.42;;;23.17;;
49458;SDS011;35354;51.296;16.924;2023-12-14T09:16:16;39.92;;;23.00;;
49458;SDS011;35354;51.296;16.924;2023-12-14T09:18:42;48.17;;;26.80;;
49458;SDS011;35354;51.296;16.924;2023-12-14T09:21:08;42.92;;;26.35;;
49458;SDS011;35354;51.296;16.924;2023-12-14T09:23:33;42.35;;;24.90;;
49458;SDS011;35354;51.296;16.924;2023-12-14T09:25:58;51.10;;;27.40;;
49458;SDS011;35354;51.296;16.924;2023-12-14T09:28:24;46.70;;;27.15;;
49458;SDS011;35354;51.296;16.924;2023-12-14T09:30:50;53.92;;;29.65;;
49458;SDS011;35354;51.296;16.924;2023-12-14T09:33:16;57.55;;;32.65;;
49458;SDS011;35354;51.296;16.924;2023-12-14T09:35:41;63.35;;;33.15;;
49458;SDS011;35354;51.296;16.924;2023-12-14T09:38:07;53.63;;;30.52;;
49458;SDS011;35354;51.296;16.924;2023-12-14T09:40:33;53.25;;;30.10;;
49458;SDS011;35354;51.296;16.924;2023-12-14T09:42:59;57.13;;;32.20;;
49458;SDS011;35354;51.296;16.924;2023-12-14T09:45:28;57.28;;;30.42;;
49458;SDS011;35354;51.296;16.924;2023-12-14T09:47:55;54.90;;;30.80;;
49458;SDS011;35354;51.296;16.924;2023-12-14T09:50:25;56.03;;;30.53;;
49458;SDS011;35354;51.296;16.924;2023-12-14T09:52:50;44.75;;;27.50;;
49458;SDS011;35354;51.296;16.924;2023-12-14T09:55:16;52.70;;;27.55;;
49458;SDS011;35354;51.296;16.924;2023-12-14T09:57:43;46.75;;;27.98;;
49458;SDS011;35354;51.296;16.924;2023-12-14T10:00:08;53.55;;;29.02;;
49458;SDS011;35354;51.296;16.924;2023-12-14T10:02:40;54.92;;;30.85;;
49458;SDS011;35354;51.296;16.924;2023-12-14T10:05:15;64.07;;;32.97;;
49458;SDS011;35354;51.296;16.924;2023-12-14T10:07:43;54.35;;;31.80;;
49458;SDS011;35354;51.296;16.924;2023-12-14T10:10:09;58.47;;;32.90;;
49458;SDS011;35354;51.296;16.924;2023-12-14T10:12:57;61.45;;;32.40;;
49458;SDS011;35354;51.296;16.924;2023-12-14T10:15:21;55.50;;;32.90;;
49458;SDS011;35354;51.296;16.924;2023-12-14T10:17:51;92.70;;;37.58;;
49458;SDS011;35354;51.296;16.924;2023-12-14T10:20:20;53.80;;;30.45;;
49458;SDS011;35354;51.296;16.924;2023-12-14T10:22:51;53.50;;;32.38;;
49458;SDS011;35354;51.296;16.924;2023-12-14T10:25:18;52.63;;;29.30;;
49458;SDS011;35354;51.296;16.924;2023-12-14T10:27:47;56.50;;;32.13;;
49458;SDS011;35354;51.296;16.924;2023-12-14T10:30:13;94.07;;;35.63;;
49458;SDS011;35354;51.296;16.924;2023-12-14T10:32:40;49.80;;;28.98;;
49458;SDS011;35354;51.296;16.924;2023-12-14T10:35:06;57.83;;;30.80;;
49458;SDS011;35354;51.296;16.924;2023-12-14T10:37:32;94.90;;;60.90;;
49458;SDS011;35354;51.296;16.924;2023-12-14T10:40:01;109.43;;;66.35;;
49458;SDS011;35354;51.296;16.924;2023-12-14T10:42:30;99.05;;;65.15;;
49458;SDS011;35354;51.296;16.924;2023-12-14T10:44:57;92.68;;;66.65;;
49458;SDS011;35354;51.296;16.924;2023-12-14T10:47:24;53.47;;;32.47;;
49458;SDS011;35354;51.296;16.924;2023-12-14T10:49:50;57.97;;;32.67;;
49458;SDS011;35354;51.296;16.924;2023-12-14T10:52:16;57.17;;;32.97;;
49458;SDS011;35354;51.296;16.924;2023-12-14T10:54:44;51.33;;;31.83;;
49458;SDS011;35354;51.296;16.924;2023-12-14T10:57:12;67.43;;;31.52;;
49458;SDS011;35354;51.296;16.924;2023-12-14T10:59:37;50.83;;;30.25;;
49458;SDS011;35354;51.296;16.924;2023-12-14T11:02:07;52.58;;;31.50;;
49458;SDS011;35354;51.296;16.924;2023-12-14T11:10:14;45.03;;;27.83;;
49458;SDS011;35354;51.296;16.924;2023-12-14T11:13:03;47.53;;;27.02;;
49458;SDS011;35354;51.296;16.924;2023-12-14T11:15:34;49.47;;;29.80;;
49458;SDS011;35354;51.296;16.924;2023-12-14T11:20:51;46.17;;;28.13;;
49458;SDS011;35354;51.296;16.924;2023-12-14T11:25:51;48.50;;;29.80;;
49458;SDS011;35354;51.296;16.924;2023-12-14T11:28:19;57.15;;;34.20;;
49458;SDS011;35354;51.296;16.924;2023-12-14T11:30:45;58.30;;;36.05;;
49458;SDS011;35354;51.296;16.924;2023-12-14T11:33:12;56.08;;;33.67;;
49458;SDS011;35354;51.296;16.924;2023-12-14T11:35:39;67.90;;;43.95;;
49458;SDS011;35354;51.296;16.924;2023-12-14T11:38:08;56.28;;;33.70;;
49458;SDS011;35354;51.296;16.924;2023-12-14T11:40:40;48.45;;;31.45;;
49458;SDS011;35354;51.296;16.924;2023-12-14T11:43:06;49.22;;;30.90;;
49458;SDS011;35354;51.296;16.924;2023-12-14T11:45:37;51.83;;;32.33;;
49458;SDS011;35354;51.296;16.924;2023-12-14T11:48:06;53.80;;;32.90;;
49458;SDS011;35354;51.296;16.924;2023-12-14T11:50:32;55.70;;;35.78;;
49458;SDS011;35354;51.296;16.924;2023-12-14T11:53:01;62.53;;;35.38;;
49458;SDS011;35354;51.296;16.924;2023-12-14T11:55:36;56.67;;;30.45;;
49458;SDS011;35354;51.296;16.924;2023-12-14T11:58:04;61.58;;;36.25;;
49458;SDS011;35354;51.296;16.924;2023-12-14T12:00:30;67.47;;;37.47;;
49458;SDS011;35354;51.296;16.924;2023-12-14T12:03:10;72.97;;;42.03;;
49458;SDS011;35354;51.296;16.924;2023-12-14T12:05:39;69.88;;;39.92;;
49458;SDS011;35354;51.296;16.924;2023-12-14T12:08:24;53.55;;;30.63;;
49458;SDS011;35354;51.296;16.924;2023-12-14T12:10:50;76.65;;;43.10;;
49458;SDS011;35354;51.296;16.924;2023-12-14T12:13:25;54.63;;;30.73;;
49458;SDS011;35354;51.296;16.924;2023-12-14T12:15:51;57.92;;;36.58;;
49458;SDS011;35354;51.296;16.924;2023-12-14T12:18:17;52.85;;;32.28;;
49458;SDS011;35354;51.296;16.924;2023-12-14T12:20:44;46.17;;;29.98;;
49458;SDS011;35354;51.296;16.924;2023-12-14T12:23:11;37.00;;;23.27;;
49458;SDS011;35354;51.296;16.924;2023-12-14T12:25:45;35.65;;;21.65;;
49458;SDS011;35354;51.296;16.924;2023-12-14T12:28:11;37.50;;;22.25;;
49458;SDS011;35354;51.296;16.924;2023-12-14T12:30:47;37.55;;;21.60;;
49458;SDS011;35354;51.296;16.924;2023-12-14T12:33:14;37.40;;;22.33;;
49458;SDS011;35354;51.296;16.924;2023-12-14T12:35:41;40.17;;;23.45;;
49458;SDS011;35354;51.296;16.924;2023-12-14T12:38:07;34.90;;;21.48;;
49458;SDS011;35354;51.296;16.924;2023-12-14T12:40:34;37.28;;;22.23;;
49458;SDS011;35354;51.296;16.924;2023-12-14T12:43:01;39.38;;;24.73;;
49458;SDS011;35354;51.296;16.924;2023-12-14T12:45:28;40.22;;;23.85;;
49458;SDS011;35354;51.296;16.924;2023-12-14T12:48:04;42.10;;;23.52;;
49458;SDS011;35354;51.296;16.924;2023-12-14T12:50:32;40.83;;;21.25;;
49458;SDS011;35354;51.296;16.924;2023-12-14T12:52:58;32.40;;;20.08;;
49458;SDS011;35354;51.296;16.924;2023-12-14T12:55:23;33.70;;;20.75;;
49458;SDS011;35354;51.296;16.924;2023-12-14T12:57:48;39.80;;;20.60;;
49458;SDS011;35354;51.296;16.924;2023-12-14T13:00:14;46.22;;;26.25;;
49458;SDS011;35354;51.296;16.924;2023-12-14T13:02:40;40.58;;;24.85;;
49458;SDS011;35354;51.296;16.924;2023-12-14T13:05:07;41.55;;;24.35;;
49458;SDS011;35354;51.296;16.924;2023-12-14T13:07:33;34.60;;;22.63;;
49458;SDS011;35354;51.296;16.924;2023-12-14T13:09:59;38.13;;;23.58;;
49458;SDS011;35354;51.296;16.924;2023-12-14T13:12:25;41.17;;;25.02;;
49458;SDS011;35354;51.296;16.924;2023-12-14T13:14:51;45.35;;;25.27;;
49458;SDS011;35354;51.296;16.924;2023-12-14T13:17:16;46.75;;;25.45;;
49458;SDS011;35354;51.296;16.924;2023-12-14T13:19:43;42.50;;;22.23;;
49458;SDS011;35354;51.296;16.924;2023-12-14T13:22:09;43.33;;;23.67;;
49458;SDS011;35354;51.296;16.924;2023-12-14T13:24:36;42.95;;;26.33;;
49458;SDS011;35354;51.296;16.924;2023-12-14T13:27:01;47.92;;;27.17;;
49458;SDS011;35354;51.296;16.924;2023-12-14T13:29:26;49.97;;;25.92;;
49458;SDS011;35354;51.296;16.924;2023-12-14T13:31:52;46.33;;;24.55;;
49458;SDS011;35354;51.296;16.924;2023-12-14T13:34:17;40.50;;;22.52;;
49458;SDS011;35354;51.296;16.924;2023-12-14T13:36:43;37.53;;;22.25;;
49458;SDS011;35354;51.296;16.924;2023-12-14T13:39:15;46.60;;;24.30;;
49458;SDS011;35354;51.296;16.924;2023-12-14T13:41:40;47.70;;;24.83;;
49458;SDS011;35354;51.296;16.924;2023-12-14T13:44:06;53.85;;;28.35;;
49458;SDS011;35354;51.296;16.924;2023-12-14T13:46:33;50.50;;;26.20;;
49458;SDS011;35354;51.296;16.924;2023-12-14T13:48:58;49.60;;;27.08;;
49458;SDS011;35354;51.296;16.924;2023-12-14T13:51:23;120.95;;;71.50;;
49458;SDS011;35354;51.296;16.924;2023-12-14T13:53:49;126.97;;;85.03;;
49458;SDS011;35354;51.296;16.924;2023-12-14T13:56:14;68.13;;;43.35;;
49458;SDS011;35354;51.296;16.924;2023-12-14T13:58:39;78.47;;;51.25;;
49458;SDS011;35354;51.296;16.924;2023-12-14T14:01:05;62.13;;;40.03;;
49458;SDS011;35354;51.296;16.924;2023-12-14T14:03:36;56.40;;;31.42;;
49458;SDS011;35354;51.296;16.924;2023-12-14T14:08:30;58.38;;;31.92;;
49458;SDS011;35354;51.296;16.924;2023-12-14T14:10:57;61.67;;;34.65;;
49458;SDS011;35354;51.296;16.924;2023-12-14T14:13:22;58.35;;;34.85;;
49458;SDS011;35354;51.296;16.924;2023-12-14T14:15:48;51.67;;;31.27;;
49458;SDS011;35354;51.296;16.924;2023-12-14T14:18:13;51.53;;;30.88;;